Time;durP1;ratioP1;P1;durP2;ratioP2;P2;SDS_P1;SDS_P2;PMS_P1;PMS_P2;Temp;Humidity;BMP_temperature;BMP_pressure;BME280_temperature;BME280_humidity;BME280_pressure;Samples;Min_cycle;Max_cycle;Signal;HPM_P1;HPM_P2
2022/08/16 00:00:34;;;;;;;13.07;10.00;;;22.60;99.90;;;;;;4973036;28;20037;-77
2022/08/16 00:03:01;;;;;;;16.45;10.05;;;22.60;99.90;;;;;;4973970;28;20042;-77
2022/08/16 00:05:28;;;;;;;16.17;9.40;;;22.60;99.90;;;;;;4972527;28;20054;-77
2022/08/16 00:07:54;;;;;;;14.15;9.90;;;22.60;99.90;;;;;;4973373;28;20033;-78
2022/08/16 00:10:22;;;;;;;12.80;10.27;;;22.60;99.90;;;;;;4972681;28;20051;-78
2022/08/16 00:12:50;;;;;;;17.33;9.80;;;22.60;99.90;;;;;;4972511;28;20461;-77
2022/08/16 00:15:43;;;;;;;14.43;9.80;;;22.50;99.90;;;;;;4972480;28;20043;-79
2022/08/16 00:18:10;;;;;;;12.63;9.63;;;22.50;99.90;;;;;;4972442;28;20031;-78
2022/08/16 00:20:38;;;;;;;14.85;9.35;;;22.60;99.90;;;;;;4972558;28;20450;-78
2022/08/16 00:23:04;;;;;;;14.90;9.60;;;22.50;99.90;;;;;;4973361;28;20034;-79
2022/08/16 00:25:31;;;;;;;12.60;9.60;;;22.50;99.90;;;;;;4973484;28;20073;-78
2022/08/16 00:27:57;;;;;;;15.85;10.40;;;22.50;99.90;;;;;;4972540;28;20097;-78
2022/08/16 00:30:24;;;;;;;13.55;9.55;;;22.40;99.90;;;;;;4973747;28;20050;-78
2022/08/16 00:32:52;;;;;;;13.88;10.27;;;22.40;99.90;;;;;;4973651;28;20118;-77
2022/08/16 00:35:23;;;;;;;16.45;9.80;;;22.40;99.90;;;;;;4972458;28;20453;-77
2022/08/16 00:37:49;;;;;;;16.23;10.13;;;22.30;99.90;;;;;;4973777;28;20050;-78
2022/08/16 00:40:21;;;;;;;16.67;9.32;;;22.30;99.90;;;;;;4972215;28;20059;-77
2022/08/16 00:42:47;;;;;;;12.38;10.10;;;22.30;99.90;;;;;;4988533;28;20034;-75
2022/08/16 00:45:44;;;;;;;11.55;9.38;;;22.30;99.90;;;;;;4973385;28;20081;-77
2022/08/16 00:48:13;;;;;;;13.98;9.48;;;22.20;99.90;;;;;;4973365;28;20117;-78
2022/08/16 00:50:40;;;;;;;11.85;9.15;;;22.20;99.90;;;;;;4972350;28;20081;-78
2022/08/16 00:53:10;;;;;;;14.90;10.70;;;22.20;99.90;;;;;;4972533;28;20113;-78
2022/08/16 00:55:40;;;;;;;12.73;9.68;;;22.10;99.90;;;;;;4973246;28;20265;-77
2022/08/16 00:58:08;;;;;;;12.05;9.50;;;22.10;99.90;;;;;;4973207;28;20635;-77
2022/08/16 01:00:35;;;;;;;13.23;9.65;;;22.10;99.90;;;;;;4973278;28;20045;-77
2022/08/16 01:03:07;;;;;;;15.00;8.93;;;22.00;99.90;;;;;;4973470;28;20030;-76
2022/08/16 01:05:33;;;;;;;14.85;9.85;;;22.00;99.90;;;;;;4973023;28;20030;-77
2022/08/16 01:08:01;;;;;;;17.02;9.45;;;21.90;99.90;;;;;;4973288;28;20497;-77
2022/08/16 01:10:29;;;;;;;11.70;9.38;;;21.90;99.90;;;;;;4972636;28;20058;-77
2022/08/16 01:12:55;;;;;;;13.88;9.20;;;21.80;99.90;;;;;;4972690;28;20037;-77
2022/08/16 01:15:22;;;;;;;10.57;8.95;;;21.80;99.90;;;;;;4972834;28;20034;-76
2022/08/16 01:17:48;;;;;;;14.15;9.13;;;21.80;99.90;;;;;;4973103;28;20039;-77
2022/08/16 01:20:17;;;;;;;12.40;9.52;;;21.80;99.90;;;;;;4972652;28;20054;-77
2022/08/16 01:22:51;;;;;;;14.90;9.07;;;21.80;99.90;;;;;;4972011;28;20030;-76
2022/08/16 01:25:23;;;;;;;13.10;9.10;;;21.80;99.90;;;;;;4972556;28;20042;-76
2022/08/16 01:27:55;;;;;;;11.30;9.43;;;21.80;99.90;;;;;;4971329;28;20039;-76
2022/08/16 01:30:25;;;;;;;15.25;9.82;;;21.70;99.90;;;;;;4972477;28;20409;-77
2022/08/16 01:32:53;;;;;;;15.45;9.45;;;21.70;99.90;;;;;;4972871;28;20042;-77
2022/08/16 01:35:30;;;;;;;15.43;9.32;;;21.70;99.90;;;;;;4976444;28;20372;-76
2022/08/16 01:38:12;;;;;;;16.95;9.60;;;21.70;99.90;;;;;;4992150;28;20476;-77
2022/08/16 01:40:38;;;;;;;14.45;9.02;;;21.70;99.90;;;;;;4991738;28;20046;-76
2022/08/16 01:43:04;;;;;;;13.52;8.65;;;21.70;99.90;;;;;;4991713;28;20026;-76
2022/08/16 01:45:29;;;;;;;11.88;9.18;;;21.70;99.90;;;;;;4991583;28;20061;-77
2022/08/16 01:47:55;;;;;;;13.45;9.27;;;21.60;99.90;;;;;;4991619;28;20042;-78
2022/08/16 01:50:21;;;;;;;11.60;8.90;;;21.70;99.90;;;;;;4991628;28;20023;-78
2022/08/16 01:52:48;;;;;;;12.35;9.35;;;21.60;99.90;;;;;;4992227;28;20042;-78
2022/08/16 01:55:17;;;;;;;11.55;9.30;;;21.60;99.90;;;;;;4991483;28;20034;-77
2022/08/16 01:57:42;;;;;;;14.75;9.25;;;21.60;99.90;;;;;;4991670;28;20125;-78
2022/08/16 02:00:10;;;;;;;13.25;10.15;;;21.60;99.90;;;;;;4991415;28;20181;-77
2022/08/16 02:02:36;;;;;;;16.13;9.25;;;21.50;99.90;;;;;;4991490;28;20031;-78
2022/08/16 02:05:02;;;;;;;11.77;9.20;;;21.50;99.90;;;;;;4991576;28;20030;-78
2022/08/16 02:07:29;;;;;;;12.20;9.38;;;21.40;99.90;;;;;;4990169;28;20465;-78
2022/08/16 02:09:54;;;;;;;12.35;8.55;;;21.50;99.90;;;;;;4990193;28;20376;-79
2022/08/16 02:12:20;;;;;;;13.70;8.93;;;21.40;99.90;;;;;;4991341;28;20031;-79
2022/08/16 02:14:46;;;;;;;14.23;9.13;;;21.30;99.90;;;;;;4991353;28;20539;-78
2022/08/16 02:17:12;;;;;;;12.02;8.68;;;21.40;99.90;;;;;;4991257;28;20030;-78
2022/08/16 02:19:41;;;;;;;12.32;9.10;;;21.40;99.90;;;;;;4992001;28;20449;-79
2022/08/16 02:22:11;;;;;;;16.52;9.60;;;21.40;99.90;;;;;;4991516;28;20034;-77
2022/08/16 02:24:39;;;;;;;14.70;9.95;;;21.30;99.90;;;;;;4991611;28;20058;-78
2022/08/16 02:27:04;;;;;;;11.15;8.70;;;21.30;99.90;;;;;;4991388;28;20038;-78
2022/08/16 02:29:30;;;;;;;11.23;9.35;;;21.30;99.90;;;;;;4991446;28;20114;-78
2022/08/16 02:31:56;;;;;;;14.02;9.10;;;21.30;99.90;;;;;;4991823;28;20041;-78
2022/08/16 02:34:22;;;;;;;11.20;9.07;;;21.20;99.90;;;;;;4991324;28;20030;-78
2022/08/16 02:36:48;;;;;;;14.13;8.77;;;21.30;99.90;;;;;;4991152;28;20030;-77
2022/08/16 02:39:15;;;;;;;11.30;9.23;;;21.20;99.90;;;;;;4990259;28;20082;-77
2022/08/16 02:41:43;;;;;;;16.85;9.50;;;21.20;99.90;;;;;;4991291;28;20027;-77
2022/08/16 02:44:11;;;;;;;16.35;9.23;;;21.20;99.90;;;;;;4991115;28;20041;-78
2022/08/16 02:46:37;;;;;;;14.00;9.40;;;21.20;99.90;;;;;;4991822;28;20125;-78
2022/08/16 02:49:05;;;;;;;13.88;10.15;;;21.20;99.90;;;;;;4991358;28;20035;-78
2022/08/16 02:51:31;;;;;;;16.15;8.93;;;21.20;99.90;;;;;;4990153;28;20531;-78
2022/08/16 02:53:57;;;;;;;15.27;9.45;;;21.20;99.90;;;;;;4991193;28;20112;-78
2022/08/16 02:56:23;;;;;;;16.00;9.65;;;21.20;99.90;;;;;;4991260;28;20456;-78
2022/08/16 02:58:51;;;;;;;15.20;8.95;;;21.10;99.90;;;;;;4990599;28;20168;-78
2022/08/16 03:01:22;;;;;;;13.52;9.38;;;21.10;99.90;;;;;;4991309;28;20030;-78
2022/08/16 03:03:48;;;;;;;13.20;9.18;;;21.10;99.90;;;;;;4991264;28;20046;-78
2022/08/16 03:06:17;;;;;;;14.45;9.45;;;21.00;99.90;;;;;;4991097;28;20046;-78
2022/08/16 03:08:44;;;;;;;16.13;9.68;;;21.00;99.90;;;;;;4989890;28;20117;-78
2022/08/16 03:11:10;;;;;;;16.08;9.90;;;20.90;99.90;;;;;;4991416;28;20165;-78
2022/08/16 03:13:37;;;;;;;15.73;9.52;;;21.00;99.90;;;;;;4990373;28;20026;-77
2022/08/16 03:16:06;;;;;;;18.92;9.82;;;20.90;99.90;;;;;;4992020;28;20050;-77
2022/08/16 03:18:32;;;;;;;12.20;9.35;;;20.90;99.90;;;;;;4994754;28;20031;-78
2022/08/16 03:21:01;;;;;;;13.85;10.02;;;20.90;99.90;;;;;;4994552;28;20034;-78
2022/08/16 03:23:26;;;;;;;15.60;9.52;;;20.90;99.90;;;;;;4994247;28;20022;-77
2022/08/16 03:25:52;;;;;;;13.93;9.48;;;20.90;99.90;;;;;;4994618;28;20461;-78
2022/08/16 03:28:19;;;;;;;13.00;9.75;;;20.90;99.90;;;;;;4994169;28;20140;-78
2022/08/16 03:30:45;;;;;;;18.90;8.73;;;20.90;99.90;;;;;;4994274;28;20034;-77
2022/08/16 03:33:11;;;;;;;13.05;9.38;;;20.80;99.90;;;;;;4994437;28;20113;-77
2022/08/16 03:35:38;;;;;;;17.55;8.82;;;20.80;99.90;;;;;;4994045;28;20499;-78
2022/08/16 03:38:07;;;;;;;15.32;9.95;;;20.80;99.90;;;;;;4994969;28;20022;-79
2022/08/16 03:40:35;;;;;;;21.88;11.13;;;20.80;99.90;;;;;;4994330;28;20038;-76
2022/08/16 03:43:05;;;;;;;17.88;10.90;;;20.80;99.90;;;;;;4994294;28;20036;-77
2022/08/16 03:45:34;;;;;;;14.95;9.38;;;20.70;99.90;;;;;;4994056;28;20088;-77
2022/08/16 03:48:02;;;;;;;12.85;9.38;;;20.70;99.90;;;;;;4993839;28;20445;-77
2022/08/16 03:50:28;;;;;;;12.40;9.93;;;20.70;99.90;;;;;;4994061;28;20033;-77
2022/08/16 03:52:55;;;;;;;18.25;10.60;;;20.70;99.90;;;;;;4994494;28;20030;-77
2022/08/16 03:55:21;;;;;;;19.13;9.75;;;20.70;99.90;;;;;;4993785;28;20049;-78
2022/08/16 03:57:48;;;;;;;18.92;9.60;;;20.70;99.90;;;;;;4993879;28;20035;-78
2022/08/16 04:00:21;;;;;;;21.13;10.05;;;20.70;99.90;;;;;;4992733;28;20045;-78
2022/08/16 04:02:46;;;;;;;13.30;9.95;;;20.70;99.90;;;;;;4993790;28;20575;-78
2022/08/16 04:05:13;;;;;;;15.55;10.43;;;20.60;99.90;;;;;;4993802;28;20034;-77
2022/08/16 04:07:39;;;;;;;15.18;9.95;;;20.60;99.90;;;;;;4993909;28;20113;-78
2022/08/16 04:10:07;;;;;;;17.88;10.35;;;20.60;99.90;;;;;;4993285;28;20134;-78
2022/08/16 04:12:33;;;;;;;14.50;10.27;;;20.60;99.90;;;;;;4992568;28;20034;-77
2022/08/16 04:15:01;;;;;;;13.45;9.77;;;20.60;99.90;;;;;;4993511;28;20048;-77
2022/08/16 04:17:27;;;;;;;;;;;20.50;99.90;;;;;;4993654;28;20479;-77
2022/08/16 04:19:52;;;;;;;13.48;9.35;;;20.50;99.90;;;;;;4994026;28;19955;-77
2022/08/16 04:22:18;;;;;;;12.40;10.20;;;20.60;99.90;;;;;;4993571;28;20066;-79
2022/08/16 04:24:44;;;;;;;15.23;10.35;;;20.50;99.90;;;;;;4993246;28;20530;-78
2022/08/16 04:27:10;;;;;;;13.15;9.50;;;20.60;99.90;;;;;;4992833;28;20528;-77
2022/08/16 04:29:36;;;;;;;21.25;10.23;;;20.50;99.90;;;;;;4993265;28;20133;-77
2022/08/16 04:32:02;;;;;;;18.38;10.43;;;20.60;99.90;;;;;;4993709;28;20026;-78
2022/08/16 04:34:31;;;;;;;13.23;10.02;;;20.60;99.90;;;;;;4993109;28;20488;-78
2022/08/16 04:37:00;;;;;;;17.40;10.20;;;20.60;99.90;;;;;;4993009;28;20144;-78
2022/08/16 04:39:27;;;;;;;15.32;9.85;;;20.60;99.90;;;;;;4992934;28;20456;-78
2022/08/16 04:41:52;;;;;;;15.38;10.27;;;20.60;99.90;;;;;;4993141;28;20464;-77
2022/08/16 04:44:18;;;;;;;17.83;9.85;;;20.60;99.90;;;;;;4992911;28;20021;-78
2022/08/16 04:46:44;;;;;;;19.85;10.52;;;20.70;99.90;;;;;;4993313;28;20033;-77
2022/08/16 04:49:10;;;;;;;21.95;10.32;;;20.70;99.90;;;;;;4991937;28;20121;-77
2022/08/16 04:51:40;;;;;;;18.05;10.88;;;20.80;99.90;;;;;;4992508;28;20252;-77
2022/08/16 04:54:06;;;;;;;14.57;10.38;;;20.70;99.90;;;;;;4991554;28;20030;-77
2022/08/16 04:56:32;;;;;;;14.10;9.90;;;20.80;99.90;;;;;;4992635;28;20042;-78
2022/08/16 04:58:58;;;;;;;13.90;9.60;;;20.80;99.90;;;;;;4993388;28;20030;-78
2022/08/16 05:01:25;;;;;;;15.77;9.93;;;20.80;99.90;;;;;;4992924;28;20026;-78
2022/08/16 05:03:51;;;;;;;15.18;9.35;;;20.80;99.90;;;;;;4992825;28;20088;-77
2022/08/16 05:06:17;;;;;;;18.48;10.38;;;20.80;99.90;;;;;;4992364;28;20445;-79
2022/08/16 05:08:42;;;;;;;16.52;10.32;;;20.80;99.90;;;;;;4992119;28;20152;-77
2022/08/16 05:11:10;;;;;;;14.30;8.82;;;20.80;99.90;;;;;;4992813;28;20105;-78
2022/08/16 05:13:37;;;;;;;;;;;20.80;99.90;;;;;;4993137;28;20052;-78
2022/08/16 05:16:08;;;;;;;14.73;9.07;;;20.90;99.90;;;;;;4992944;28;20000;-77
2022/08/16 05:18:35;;;;;;;18.80;10.32;;;20.90;99.90;;;;;;4992326;28;20026;-78
2022/08/16 05:21:01;;;;;;;15.65;10.77;;;20.90;99.90;;;;;;4992067;28;20354;-78
2022/08/16 05:23:26;;;;;;;13.00;9.13;;;20.90;99.90;;;;;;4992315;28;20027;-77
2022/08/16 05:25:52;;;;;;;12.77;9.20;;;20.90;99.90;;;;;;4993010;28;20084;-78
2022/08/16 05:28:18;;;;;;;12.80;8.73;;;21.00;99.90;;;;;;4991998;28;20065;-77
2022/08/16 05:30:44;;;;;;;15.68;9.65;;;21.10;99.90;;;;;;4992187;28;20034;-78
2022/08/16 05:33:11;;;;;;;12.90;8.88;;;21.20;99.90;;;;;;4992032;28;20057;-78
2022/08/16 05:35:37;;;;;;;13.50;9.75;;;21.20;99.90;;;;;;4992019;28;20034;-78
2022/08/16 05:38:03;;;;;;;17.33;9.95;;;21.20;99.90;;;;;;4992179;28;20066;-78
2022/08/16 05:40:29;;;;;;;13.50;10.60;;;21.10;99.90;;;;;;4991478;28;20105;-78
2022/08/16 05:42:54;;;;;;;12.05;9.45;;;21.10;99.90;;;;;;4991851;28;20393;-78
2022/08/16 05:45:20;;;;;;;24.85;10.02;;;21.20;99.90;;;;;;4991892;28;20508;-78
2022/08/16 05:47:46;;;;;;;14.48;9.93;;;21.20;99.90;;;;;;4991891;28;20077;-79
2022/08/16 05:50:11;;;;;;;12.75;9.23;;;21.20;99.90;;;;;;4992132;28;20037;-79
2022/08/16 05:52:37;;;;;;;16.55;9.70;;;21.30;99.90;;;;;;4992394;28;20022;-78
2022/08/16 05:55:04;;;;;;;17.77;9.65;;;21.30;99.90;;;;;;4992090;28;20369;-78
2022/08/16 05:57:30;;;;;;;12.75;9.52;;;21.40;99.90;;;;;;4991843;28;20049;-78
2022/08/16 05:59:56;;;;;;;14.75;8.43;;;21.50;99.90;;;;;;4991875;28;20034;-78
2022/08/16 06:02:26;;;;;;;12.80;8.70;;;21.50;99.90;;;;;;4991123;28;20511;-78
2022/08/16 06:04:52;;;;;;;10.80;8.00;;;21.60;99.90;;;;;;4992141;28;20015;-78
2022/08/16 06:07:18;;;;;;;14.82;9.25;;;21.60;99.90;;;;;;4991235;28;20125;-78
2022/08/16 06:09:43;;;;;;;12.75;7.82;;;21.70;99.90;;;;;;4991093;28;20130;-79
2022/08/16 06:12:12;;;;;;;16.98;7.65;;;21.70;99.90;;;;;;4991128;28;20396;-77
2022/08/16 06:14:39;;;;;;;23.67;8.93;;;21.70;99.90;;;;;;4991238;28;20046;-76
2022/08/16 06:17:05;;;;;;;29.48;9.27;;;21.80;99.90;;;;;;4991699;28;20589;-77
2022/08/16 06:19:31;;;;;;;23.73;9.57;;;21.80;99.90;;;;;;4990158;28;20034;-77
2022/08/16 06:21:57;;;;;;;19.92;8.85;;;21.80;99.90;;;;;;4991273;28;20034;-77
2022/08/16 06:24:23;;;;;;;19.05;9.63;;;21.90;99.90;;;;;;4991588;28;20038;-78
2022/08/16 06:26:48;;;;;;;24.77;9.52;;;21.90;99.90;;;;;;4991095;28;20042;-77
2022/08/16 06:29:14;;;;;;;17.23;9.43;;;22.00;99.90;;;;;;4991411;28;20027;-76
2022/08/16 06:31:40;;;;;;;17.08;9.68;;;22.00;99.90;;;;;;4991760;28;20037;-76
2022/08/16 06:34:06;;;;;;;13.30;8.73;;;22.10;99.90;;;;;;4990429;28;20109;-74
2022/08/16 06:36:31;;;;;;;13.48;9.02;;;22.10;99.90;;;;;;4991301;28;20372;-77
2022/08/16 06:38:58;;;;;;;20.90;9.70;;;22.20;99.90;;;;;;4990317;28;20034;-77
2022/08/16 06:41:24;;;;;;;15.13;8.90;;;22.20;99.90;;;;;;4991197;28;20037;-76
2022/08/16 06:43:50;;;;;;;12.70;6.60;;;22.20;99.90;;;;;;4991980;28;20050;-76
2022/08/16 06:46:27;;;;;;;9.07;7.20;;;22.30;99.90;;;;;;4991303;28;20082;-76
2022/08/16 06:48:52;;;;;;;9.52;6.75;;;22.30;99.90;;;;;;4991458;28;20042;-75
2022/08/16 06:51:18;;;;;;;11.07;6.13;;;22.40;99.90;;;;;;4992916;28;20026;-77
2022/08/16 06:53:44;;;;;;;13.95;6.85;;;22.40;99.90;;;;;;4994084;28;20469;-76
2022/08/16 06:56:10;;;;;;;15.25;5.90;;;22.40;99.90;;;;;;4993869;28;20535;-76
2022/08/16 06:58:36;;;;;;;12.27;8.13;;;22.50;99.90;;;;;;4995559;28;20114;-77
2022/08/16 07:01:07;;;;;;;13.70;8.00;;;22.50;99.90;;;;;;4994856;28;20037;-78
2022/08/16 07:03:32;;;;;;;14.30;6.75;;;22.50;99.90;;;;;;4995189;28;20084;-77
2022/08/16 07:05:58;;;;;;;14.95;6.93;;;22.60;99.90;;;;;;4995065;28;20038;-77
2022/08/16 07:08:25;;;;;;;12.05;6.68;;;22.70;99.90;;;;;;4994903;28;20040;-78
2022/08/16 07:10:51;;;;;;;9.07;5.78;;;22.70;99.90;;;;;;4995012;28;20038;-77
2022/08/16 07:13:18;;;;;;;10.93;6.13;;;22.80;99.90;;;;;;4994749;28;20450;-76
2022/08/16 07:15:44;;;;;;;9.80;5.40;;;22.80;99.90;;;;;;4994374;28;20037;-77
2022/08/16 07:18:10;;;;;;;10.30;5.72;;;22.90;99.70;;;;;;4994620;28;20031;-76
2022/08/16 07:20:37;;;;;;;5.70;4.38;;;23.00;99.20;;;;;;4994801;28;20566;-76
2022/08/16 07:23:05;;;;;;;6.57;4.53;;;23.00;99.00;;;;;;4995154;28;20037;-77
2022/08/16 07:25:32;;;;;;;;;;;23.00;99.00;;;;;;4994281;28;20034;-77
2022/08/16 07:27:57;;;;;;;8.32;4.50;;;23.10;99.00;;;;;;4994623;28;19921;-78
2022/08/16 07:30:24;;;;;;;9.65;4.97;;;23.20;98.90;;;;;;4994393;28;20042;-78
2022/08/16 07:32:50;;;;;;;7.20;4.80;;;23.20;98.20;;;;;;4994259;28;20049;-76
2022/08/16 07:35:16;;;;;;;5.85;4.60;;;23.30;98.00;;;;;;4994213;28;20026;-78
2022/08/16 07:37:43;;;;;;;10.85;4.45;;;23.40;98.20;;;;;;4994831;28;20026;-76
2022/08/16 07:40:09;;;;;;;5.50;4.15;;;23.50;98.30;;;;;;4993023;28;20030;-78
2022/08/16 07:42:35;;;;;;;7.90;4.63;;;23.60;97.90;;;;;;4994044;28;20031;-77
2022/08/16 07:45:02;;;;;;;9.35;4.32;;;23.60;97.10;;;;;;4994125;28;20034;-78
2022/08/16 07:47:28;;;;;;;7.57;4.57;;;23.70;97.00;;;;;;4993798;28;20034;-77
2022/08/16 07:49:54;;;;;;;6.90;4.70;;;23.80;96.90;;;;;;4994088;28;20256;-78
2022/08/16 07:52:19;;;;;;;9.13;4.68;;;23.90;97.30;;;;;;4993614;28;20041;-76
2022/08/16 07:54:45;;;;;;;9.45;4.20;;;24.00;96.80;;;;;;4993549;28;20085;-77
2022/08/16 07:57:11;;;;;;;7.20;4.97;;;24.00;97.00;;;;;;4993559;28;20118;-78
2022/08/16 07:59:36;;;;;;;10.73;7.28;;;24.10;96.60;;;;;;4992378;28;20105;-77
2022/08/16 08:02:02;;;;;;;10.30;6.05;;;24.30;97.10;;;;;;4993452;28;20026;-78
2022/08/16 08:04:31;;;;;;;11.02;5.65;;;24.40;96.90;;;;;;4993639;28;20034;-79
2022/08/16 08:06:58;;;;;;;10.25;4.68;;;24.50;96.40;;;;;;4993402;28;20523;-78
2022/08/16 08:09:24;;;;;;;6.27;4.63;;;24.60;96.10;;;;;;4992360;28;20145;-77
2022/08/16 08:11:50;;;;;;;6.65;4.53;;;24.70;96.20;;;;;;4993627;28;20026;-78
2022/08/16 08:14:16;;;;;;;9.50;4.38;;;24.90;96.10;;;;;;4993515;28;20092;-78
2022/08/16 08:16:42;;;;;;;5.82;3.90;;;25.10;95.50;;;;;;4994470;28;20101;-77
2022/08/16 08:19:11;;;;;;;7.57;4.18;;;25.20;95.60;;;;;;4993337;28;20034;-78
2022/08/16 08:21:39;;;;;;;7.75;3.70;;;25.40;94.50;;;;;;4993352;28;20537;-77
2022/08/16 08:24:06;;;;;;;10.93;5.13;;;25.50;94.90;;;;;;4993367;28;20442;-77
2022/08/16 08:26:33;;;;;;;6.20;3.25;;;25.80;94.40;;;;;;4992336;28;20432;-77
2022/08/16 08:28:59;;;;;;;9.82;4.53;;;26.50;93.70;;;;;;4993679;28;20030;-79
2022/08/16 08:31:25;;;;;;;6.13;4.03;;;27.30;93.00;;;;;;4993544;28;20097;-78
2022/08/16 08:33:55;;;;;;;8.73;3.53;;;28.30;90.90;;;;;;4993450;28;20330;-78
2022/08/16 08:36:32;;;;;;;5.03;3.63;;;29.10;91.30;;;;;;4992135;28;20061;-80
2022/08/16 08:38:57;;;;;;;4.28;3.40;;;30.20;89.00;;;;;;4993184;28;20468;-79
2022/08/16 08:41:27;;;;;;;4.95;3.38;;;30.80;86.10;;;;;;4992729;28;20030;-77
2022/08/16 08:43:53;;;;;;;5.07;3.10;;;31.60;83.50;;;;;;4993917;28;20101;-78
2022/08/16 08:46:21;;;;;;;4.30;3.00;;;32.10;79.70;;;;;;4992684;28;20487;-75
2022/08/16 08:48:49;;;;;;;6.03;3.45;;;32.60;77.40;;;;;;4993007;28;20042;-78
2022/08/16 08:51:17;;;;;;;8.82;3.30;;;33.00;74.70;;;;;;4991913;28;20357;-77
2022/08/16 08:53:44;;;;;;;5.90;4.60;;;33.20;74.30;;;;;;4992596;28;20030;-77
2022/08/16 08:56:11;;;;;;;4.73;3.70;;;33.80;72.00;;;;;;4992332;28;20333;-75
2022/08/16 08:58:36;;;;;;;3.30;2.75;;;34.20;68.40;;;;;;4993060;28;20030;-76
2022/08/16 09:01:11;;;;;;;5.40;3.13;;;34.50;65.10;;;;;;4992400;28;20607;-77
2022/08/16 09:03:38;;;;;;;7.25;3.25;;;34.80;65.40;;;;;;4991420;28;20048;-76
2022/08/16 09:06:07;;;;;;;6.20;3.00;;;35.20;62.90;;;;;;4992320;28;20050;-79
2022/08/16 09:08:34;;;;;;;3.78;3.20;;;35.20;63.10;;;;;;4991123;28;20260;-79
2022/08/16 09:10:59;;;;;;;5.50;3.25;;;35.50;62.30;;;;;;4992530;28;20046;-77
2022/08/16 09:13:26;;;;;;;3.92;3.13;;;35.70;61.50;;;;;;4991623;28;20046;-78
2022/08/16 09:15:56;;;;;;;7.35;3.30;;;36.10;60.80;;;;;;4992123;28;20124;-79
2022/08/16 09:18:23;;;;;;;6.15;3.10;;;36.10;59.10;;;;;;4992527;28;20041;-77
2022/08/16 09:20:53;;;;;;;6.30;3.33;;;36.40;59.20;;;;;;4992335;28;20062;-76
2022/08/16 09:23:19;;;;;;;4.90;2.65;;;36.40;57.00;;;;;;4992150;28;20364;-76
2022/08/16 09:25:45;;;;;;;8.48;3.15;;;36.90;55.50;;;;;;4991888;28;20082;-78
2022/08/16 09:28:14;;;;;;;5.78;2.78;;;37.40;56.00;;;;;;4992413;28;20377;-79
2022/08/16 09:30:41;;;;;;;5.70;3.35;;;37.80;54.20;;;;;;4991994;28;20031;-79
2022/08/16 09:33:07;;;;;;;6.67;2.87;;;38.00;55.50;;;;;;4992454;28;20040;-78
2022/08/16 09:35:33;;;;;;;7.97;3.13;;;38.00;53.60;;;;;;4992121;28;20449;-77
2022/08/16 09:37:59;;;;;;;4.68;3.17;;;38.30;53.20;;;;;;4992568;28;20406;-77
2022/08/16 09:40:25;;;;;;;10.02;3.47;;;38.90;51.00;;;;;;4992240;28;20046;-78
2022/08/16 09:42:52;;;;;;;4.38;3.13;;;39.10;51.40;;;;;;4992264;28;20122;-78
2022/08/16 09:45:18;;;;;;;4.50;3.40;;;39.00;49.80;;;;;;4992097;28;20053;-78
2022/08/16 09:47:44;;;;;;;3.47;2.92;;;39.30;50.60;;;;;;4991678;28;20030;-77
2022/08/16 09:50:11;;;;;;;7.78;6.10;;;39.20;51.60;;;;;;4991840;28;20365;-79
2022/08/16 09:52:37;;;;;;;8.30;5.90;;;38.90;49.00;;;;;;4991431;28;20153;-77
2022/08/16 09:55:06;;;;;;;3.72;2.38;;;39.50;48.50;;;;;;4991738;28;20049;-79
2022/08/16 09:57:31;;;;;;;5.38;2.85;;;39.40;48.40;;;;;;4991814;28;20034;-78
2022/08/16 09:59:59;;;;;;;7.65;3.35;;;39.80;48.10;;;;;;4991662;28;20393;-78
2022/08/16 10:02:25;;;;;;;6.63;3.17;;;39.10;48.30;;;;;;4991691;28;20221;-78
2022/08/16 10:04:51;;;;;;;3.08;2.58;;;39.40;46.90;;;;;;4991961;28;20015;-78
2022/08/16 10:07:17;;;;;;;4.90;2.80;;;39.20;47.50;;;;;;4991429;28;20479;-76
2022/08/16 10:09:44;;;;;;;5.55;2.95;;;39.00;47.90;;;;;;4991561;28;20129;-76
2022/08/16 10:14:54;;;;;;;6.03;2.97;;;38.70;46.40;;;;;;4991972;28;20037;-79
2022/08/16 10:17:20;;;;;;;5.15;3.10;;;38.90;47.80;;;;;;4991756;28;20074;-79
2022/08/16 10:19:46;;;;;;;3.78;2.78;;;39.30;48.40;;;;;;4992142;28;20096;-79
2022/08/16 10:22:12;;;;;;;3.85;3.30;;;39.50;46.70;;;;;;4991644;28;20034;-78
2022/08/16 10:24:39;;;;;;;9.57;4.97;;;38.90;47.00;;;;;;4991992;28;20042;-76
2022/08/16 10:27:05;;;;;;;5.00;3.20;;;39.10;46.80;;;;;;4995585;28;20031;-79
2022/08/16 10:29:31;;;;;;;6.75;3.15;;;38.90;48.10;;;;;;4995639;28;20448;-78
2022/08/16 10:31:57;;;;;;;5.85;3.35;;;38.90;46.50;;;;;;4995931;28;20023;-79
2022/08/16 10:34:22;;;;;;;5.80;2.78;;;38.70;46.80;;;;;;4995638;28;20574;-80
2022/08/16 10:36:48;;;;;;;5.22;3.40;;;38.00;46.90;;;;;;4995502;28;20038;-78
2022/08/16 10:39:14;;;;;;;5.32;2.55;;;37.50;47.10;;;;;;4993991;28;20066;-79
2022/08/16 10:41:40;;;;;;;4.93;3.03;;;36.60;48.40;;;;;;4995176;28;20058;-79
2022/08/16 10:44:05;;;;;;;4.80;2.92;;;36.40;48.50;;;;;;4995979;28;20030;-79
2022/08/16 10:46:31;;;;;;;4.30;3.20;;;35.40;49.80;;;;;;4995175;28;20065;-78
2022/08/16 10:48:57;;;;;;;4.68;2.92;;;35.20;50.50;;;;;;4994428;28;20038;-79
2022/08/16 10:51:24;;;;;;;9.68;2.92;;;35.30;51.00;;;;;;4995370;28;20097;-78
2022/08/16 10:53:50;;;;;;;6.60;2.90;;;34.80;51.40;;;;;;4995721;28;20468;-77
2022/08/16 10:56:16;;;;;;;6.47;3.58;;;34.80;51.80;;;;;;4995215;28;20288;-78
2022/08/16 10:58:42;;;;;;;4.88;3.40;;;34.30;52.20;;;;;;4995637;28;20098;-77
2022/08/16 11:01:09;;;;;;;4.05;3.40;;;34.30;51.80;;;;;;4995270;28;20528;-78
2022/08/16 11:03:36;;;;;;;;;;;33.80;52.00;;;;;;4995708;28;20531;-77
2022/08/16 11:06:07;;;;;;;7.07;3.63;;;32.90;53.50;;;;;;4994913;28;20332;-76
2022/08/16 11:08:35;;;;;;;6.28;3.10;;;33.00;53.70;;;;;;4995338;28;20042;-76
2022/08/16 11:11:01;;;;;;;9.00;3.45;;;33.00;53.00;;;;;;4995322;28;20050;-79
2022/08/16 11:13:27;;;;;;;7.90;3.30;;;32.60;53.60;;;;;;4994944;28;20045;-79
2022/08/16 11:15:56;;;;;;;5.63;3.15;;;32.70;53.70;;;;;;4995209;28;20319;-77
2022/08/16 11:18:22;;;;;;;7.03;3.45;;;32.90;53.60;;;;;;4993514;28;20034;-77
2022/08/16 11:20:48;;;;;;;7.03;3.20;;;32.80;53.20;;;;;;4995002;28;20053;-79
2022/08/16 11:23:14;;;;;;;7.70;3.58;;;32.90;53.60;;;;;;4994618;28;20572;-78
2022/08/16 11:25:41;;;;;;;11.15;5.78;;;33.00;53.70;;;;;;4995204;28;20092;-76
2022/08/16 11:28:07;;;;;;;8.85;4.30;;;33.00;53.70;;;;;;4994793;28;20480;-77
2022/08/16 11:30:33;;;;;;;5.47;3.13;;;32.70;53.60;;;;;;4994780;28;20049;-78
2022/08/16 11:33:02;;;;;;;5.60;3.85;;;32.50;53.10;;;;;;4994743;28;20037;-78
2022/08/16 11:35:31;;;;;;;7.72;3.65;;;32.40;52.90;;;;;;4993431;28;22984;-79
2022/08/16 11:38:03;;;;;;;6.03;3.70;;;32.10;54.00;;;;;;4994051;28;20034;-77
2022/08/16 11:40:33;;;;;;;6.47;3.25;;;32.30;54.20;;;;;;4994397;28;20105;-77
2022/08/16 11:43:00;;;;;;;4.65;3.13;;;32.20;54.10;;;;;;4993382;28;20473;-76
2022/08/16 11:45:26;;;;;;;5.95;4.60;;;32.20;54.30;;;;;;4994399;28;20042;-78
2022/08/16 11:47:53;;;;;;;3.35;2.80;;;32.30;54.30;;;;;;4994160;28;20053;-78
2022/08/16 11:50:19;;;;;;;5.30;3.17;;;32.30;54.00;;;;;;4994119;28;20018;-78
2022/08/16 11:52:45;;;;;;;4.45;3.08;;;32.00;54.10;;;;;;4994393;28;20457;-78
2022/08/16 11:55:11;;;;;;;7.07;5.05;;;31.80;54.40;;;;;;4994283;28;20088;-78
2022/08/16 11:57:38;;;;;;;5.78;3.85;;;31.50;54.90;;;;;;4993942;28;20137;-77
2022/08/16 12:00:15;;;;;;;5.30;3.30;;;31.50;54.50;;;;;;4994143;28;20058;-78
2022/08/16 12:02:41;;;;;;;9.27;3.25;;;31.50;54.60;;;;;;4994270;28;20082;-79
2022/08/16 12:05:09;;;;;;;5.97;3.03;;;31.30;55.10;;;;;;4994534;28;20034;-78
2022/08/16 12:07:35;;;;;;;5.13;3.30;;;31.30;55.10;;;;;;4992859;28;20108;-77
2022/08/16 12:10:04;;;;;;;7.68;3.28;;;31.40;55.40;;;;;;4993366;28;20080;-77
2022/08/16 12:12:30;;;;;;;4.03;3.22;;;31.40;55.10;;;;;;4993610;28;20037;-79
2022/08/16 12:14:55;;;;;;;5.72;3.50;;;31.30;54.90;;;;;;4992686;28;20027;-78
2022/08/16 12:17:21;;;;;;;5.63;2.90;;;31.10;55.00;;;;;;4993687;28;20449;-79
2022/08/16 12:19:47;;;;;;;6.60;3.10;;;31.10;55.60;;;;;;4994071;28;20022;-78
2022/08/16 12:22:14;;;;;;;3.42;3.13;;;30.90;55.80;;;;;;4993928;28;20034;-77
2022/08/16 12:24:40;;;;;;;8.60;3.37;;;30.70;55.60;;;;;;4993731;28;20069;-80
2022/08/16 12:27:05;;;;;;;5.72;3.42;;;30.50;56.00;;;;;;4993416;28;20268;-79
2022/08/16 12:29:31;;;;;;;4.55;2.78;;;30.40;56.60;;;;;;4993269;28;20042;-79
2022/08/16 12:31:57;;;;;;;3.92;3.20;;;30.30;56.90;;;;;;4993786;28;20026;-77
2022/08/16 12:34:23;;;;;;;3.42;3.13;;;30.40;57.10;;;;;;4993078;28;20060;-79
2022/08/16 12:36:49;;;;;;;7.72;4.38;;;30.50;56.60;;;;;;4992059;28;20460;-80
2022/08/16 12:39:16;;;;;;;8.68;4.35;;;30.50;56.80;;;;;;4991967;28;20452;-78
2022/08/16 12:41:45;;;;;;;4.18;3.40;;;30.40;57.10;;;;;;4992936;28;20050;-79